Steinryggen — LK7676 — position and weather

sailwx.info

Track history (hours):
 
Tides and Currents Weather Stations Pressure Air Temp Water Temp Dewpoint Dewpoint Depression Visibility Wind Speed Wind Dir Waves Ship Positions

Steinryggen

Last reported at 2017-Nov-16 09:06 UTC. Time now 2017-Dec-14 02:34 UTC.
Position N 70°11' E 025°15'.
Warning: this ship's position is 27 days out of date.

Length 15 m.

MMSI: 257154440.

Date/timePositionNaut miles runAvg speedWind from/ knotsBaromVisibWave heightAir tempDewpointWater temp
2017-Nov-16 09:06N 70°11' E 025°15'1 7.6
2017-Nov-16 09:00N 70°11' E 025°14'4 7.6
2017-Nov-16 08:30N 70°07' E 025°10'2 3.7
2017-Nov-16 07:51N 70°06' E 025°05'0 0.0
2017-Nov-16 07:03N 70°06' E 025°05'0 6.7
2017-Nov-16 07:00N 70°06' E 025°06'4 7.2
2017-Nov-16 06:30N 70°09' E 025°12'4 7.2
2017-Nov-16 06:00N 70°12' E 025°16'4 7.0
2017-Nov-16 05:30N 70°15' E 025°20'3 5.1
2017-Nov-16 05:00N 70°18' E 025°20'0 0.4
2017-Nov-16 04:30N 70°18' E 025°19'0 0.0
2017-Nov-16 04:00N 70°18' E 025°19'0 0.0
2017-Nov-16 03:31N 70°18' E 025°19'0 0.0
2017-Nov-16 03:00N 70°18' E 025°19'0 0.0
2017-Nov-16 02:30N 70°18' E 025°19'0 0.0
2017-Nov-16 02:00N 70°18' E 025°19'0 0.0
2017-Nov-16 01:30N 70°18' E 025°19'0 0.0
2017-Nov-16 01:00N 70°18' E 025°19'0 0.0
2017-Nov-16 00:30N 70°18' E 025°19'0 0.0
2017-Nov-16 00:00N 70°18' E 025°19'0 0.0
2017-Nov-15 23:30N 70°18' E 025°19'0 0.0
2017-Nov-15 22:59N 70°18' E 025°19'0 0.0
2017-Nov-15 22:30N 70°18' E 025°19'0 0.0
2017-Nov-15 22:00N 70°18' E 025°19'0 0.0
2017-Nov-15 21:30N 70°18' E 025°19'0 0.0
2017-Nov-15 21:00N 70°18' E 025°19'0 0.0
2017-Nov-15 20:30N 70°18' E 025°19'0 0.0
2017-Nov-15 20:01N 70°18' E 025°19'0 0.0
2017-Nov-15 19:30N 70°18' E 025°19'0 0.0
2017-Nov-15 19:00N 70°18' E 025°19'0 0.0
2017-Nov-15 18:29N 70°18' E 025°19'0 0.0
2017-Nov-15 18:00N 70°18' E 025°19'0 0.0
2017-Nov-15 17:30N 70°18' E 025°19'0 0.0
2017-Nov-15 17:00N 70°18' E 025°19'0 0.0
2017-Nov-15 16:30N 70°18' E 025°19'1 2.7
2017-Nov-15 16:00N 70°18' E 025°22'1 2.1
2017-Nov-15 15:30N 70°19' E 025°24'1 2.1
2017-Nov-15 15:00N 70°19' E 025°21'0 0.2
2017-Nov-15 14:30N 70°19' E 025°22'0 0.1
2017-Nov-15 14:00N 70°19' E 025°22'1 2.4
2017-Nov-15 13:30N 70°19' E 025°25'0 0.6
2017-Nov-15 13:00N 70°19' E 025°24'0 0.2
2017-Nov-15 12:30N 70°19' E 025°24'2 3.7
2017-Nov-15 12:00N 70°17' E 025°21'3 6.8
2017-Nov-15 11:30N 70°14' E 025°18'4 7.1
2017-Nov-15 11:00N 70°10' E 025°13'4 7.3
2017-Nov-15 10:30N 70°07' E 025°09'2 4.6
2017-Nov-15 10:00N 70°06' E 025°05'0 0.0
2017-Nov-15 08:59N 70°06' E 025°05'3 5.9
2017-Nov-15 08:30N 70°07' E 025°12'4 7.3
2017-Nov-15 08:00N 70°11' E 025°15'4 7.3
2017-Nov-15 07:30N 70°14' E 025°19'3 6.8
2017-Nov-15 07:00N 70°17' E 025°21'1 1.4
2017-Nov-15 06:30N 70°18' E 025°19'0 0.0
2017-Nov-15 06:00N 70°18' E 025°19'0 0.0
2017-Nov-15 05:30N 70°18' E 025°19'0 0.0
2017-Nov-15 05:00N 70°18' E 025°19'0 0.0
2017-Nov-15 04:30N 70°18' E 025°19'0 0.0
2017-Nov-15 04:00N 70°18' E 025°19'0 0.0
2017-Nov-15 03:30N 70°18' E 025°19'0 0.0
2017-Nov-15 03:00N 70°18' E 025°19'0 0.0
2017-Nov-15 02:30N 70°18' E 025°19'0 0.0
2017-Nov-15 02:00N 70°18' E 025°19'0 0.0
2017-Nov-15 01:30N 70°18' E 025°19'0 0.0
2017-Nov-15 01:00N 70°18' E 025°19'0 0.0
2017-Nov-15 00:30N 70°18' E 025°19'0 0.0
2017-Nov-15 00:00N 70°18' E 025°19'0 0.0
2017-Nov-14 23:30N 70°18' E 025°19'0 0.0
2017-Nov-14 23:00N 70°18' E 025°19'0 0.0
2017-Nov-14 22:31N 70°18' E 025°19'0 0.0
2017-Nov-14 22:00N 70°18' E 025°19'0 0.0
2017-Nov-14 21:30N 70°18' E 025°19'0 0.0
2017-Nov-14 21:00N 70°18' E 025°19'0 0.0
2017-Nov-14 20:30N 70°18' E 025°19'0 0.0
2017-Nov-14 20:00N 70°18' E 025°19'0 0.0
2017-Nov-14 19:30N 70°18' E 025°19'1 2.6
2017-Nov-14 19:00N 70°18' E 025°22'1 2.2
2017-Nov-14 18:31N 70°19' E 025°25'1 1.5
2017-Nov-14 18:00N 70°19' E 025°22'0 0.5
2017-Nov-14 17:30N 70°19' E 025°22'1 2.7
2017-Nov-14 16:59N 70°20' E 025°22'3 6.6
2017-Nov-14 16:30N 70°23' E 025°24'4 6.9
2017-Nov-14 16:00N 70°27' E 025°27'4 7.0
2017-Nov-14 15:30N 70°30' E 025°31'4 7.0
2017-Nov-14 15:00N 70°34' E 025°34'4 7.3
2017-Nov-14 14:30N 70°37' E 025°37'4 7.3
2017-Nov-14 14:00N 70°40' E 025°41'4 7.4
2017-Nov-14 13:30N 70°44' E 025°46'4 7.7
2017-Nov-14 13:00N 70°47' E 025°50'4 7.6
2017-Nov-14 12:30N 70°51' E 025°54'4 7.5
2017-Nov-14 12:01N 70°54' E 025°56'4 7.6
2017-Nov-14 11:30N 70°58' E 025°57'0 0.9
2017-Nov-14 10:59N 70°59' E 025°58'0 0.5
2017-Nov-14 10:30N 70°59' E 025°58'0 0.0
2017-Nov-14 10:00N 70°59' E 025°58'0 0.0
2017-Nov-14 09:30N 70°59' E 025°58'0 0.0
2017-Nov-14 09:00N 70°59' E 025°58'0 0.0
2017-Nov-14 08:30N 70°59' E 025°58'0 0.0
2017-Nov-14 08:00N 70°59' E 025°58'0 0.0
2017-Nov-14 07:30N 70°59' E 025°58'0 0.0
2017-Nov-14 07:00N 70°59' E 025°58'0 0.0
2017-Nov-14 06:30N 70°59' E 025°58'0 0.0
2017-Nov-14 06:00N 70°59' E 025°58'0 0.0
2017-Nov-14 05:30N 70°59' E 025°58'0 0.0
2017-Nov-14 05:00N 70°59' E 025°58'0 0.0
2017-Nov-14 04:30N 70°59' E 025°58'0 0.0
2017-Nov-14 04:00N 70°59' E 025°58'0 0.0
2017-Nov-14 03:30N 70°59' E 025°58'0 0.0
2017-Nov-14 03:00N 70°59' E 025°58'0 0.0
2017-Nov-14 02:30N 70°59' E 025°58'0 0.0
2017-Nov-14 02:00N 70°59' E 025°58'0 0.0
2017-Nov-14 01:30N 70°59' E 025°58'3 5.7
2017-Nov-14 01:00N 70°56' E 025°56'4 7.5
2017-Nov-14 00:30N 70°52' E 025°55'4 7.3
2017-Nov-14 00:00N 70°49' E 025°52'4 7.2
2017-Nov-13 23:30N 70°46' E 025°47'4 7.2
2017-Nov-13 23:00N 70°42' E 025°43'4 7.4
2017-Nov-13 22:30N 70°39' E 025°39'4 7.4
2017-Nov-13 22:00N 70°35' E 025°34'19 0.9
2017-Nov-13 02:00N 70°18' E 025°19'0 0.0
2017-Nov-13 01:30N 70°18' E 025°19'0 0.0
2017-Nov-13 01:00N 70°18' E 025°19'0 0.0
2017-Nov-13 00:30N 70°18' E 025°19'0 0.0
2017-Nov-13 00:00N 70°18' E 025°19'0 0.0
2017-Nov-12 23:30N 70°18' E 025°19'0 0.0
2017-Nov-12 23:00N 70°18' E 025°19'0 0.0
2017-Nov-12 22:29N 70°18' E 025°19'0 0.0
2017-Nov-12 22:00N 70°18' E 025°19'2 3.3
2017-Nov-12 21:30N 70°19' E 025°21'2 3.5
2017-Nov-12 21:00N 70°19' E 025°26'2 4.4
2017-Nov-12 20:30N 70°20' E 025°21'2 4.3
2017-Nov-12 20:01N 70°22' E 025°24'4 7.3
2017-Nov-12 19:30N 70°25' E 025°27'4 7.5
2017-Nov-12 19:00N 70°29' E 025°30'4 7.5
2017-Nov-12 18:30N 70°32' E 025°32'4 7.5
2017-Nov-12 18:00N 70°36' E 025°35'4 7.5
2017-Nov-12 17:29N 70°40' E 025°40'4 7.6
2017-Nov-12 17:00N 70°43' E 025°44'4 7.5
2017-Nov-12 16:30N 70°47' E 025°49'4 7.6
2017-Nov-12 16:00N 70°50' E 025°54'4 7.2
2017-Nov-12 15:31N 70°53' E 025°55'3 6.9
2017-Nov-12 15:00N 70°55' E 025°45'4 7.2
2017-Nov-12 14:30N 70°56' E 025°34'3 5.9
2017-Nov-12 14:00N 70°57' E 025°27'3 6.5
2017-Nov-12 13:30N 70°59' E 025°19'4 7.3
2017-Nov-12 13:00N 70°59' E 025°08'4 7.1
2017-Nov-12 12:30N 70°59' E 024°57'4 7.1
2017-Nov-12 12:00N 70°60' E 024°46'1 2.6
2017-Nov-12 11:30N 70°60' E 024°42'1 1.5
2017-Nov-12 11:00N 70°60' E 024°40'0 0.0
2017-Nov-12 10:30N 70°60' E 024°40'0 0.0
2017-Nov-12 10:00N 70°60' E 024°40'0 0.0
2017-Nov-12 09:30N 70°60' E 024°40'0 0.0
2017-Nov-12 09:00N 70°60' E 024°40'0 0.0
2017-Nov-12 08:30N 70°60' E 024°40'0 0.1
2017-Nov-12 08:00N 70°60' E 024°40'0 0.0
2017-Nov-12 07:30N 70°60' E 024°40'0 0.0
2017-Nov-12 07:00N 70°60' E 024°40'0 0.0
2017-Nov-12 06:30N 70°60' E 024°40'0 0.0
2017-Nov-12 06:00N 70°60' E 024°40'0 0.0
2017-Nov-12 05:30N 70°60' E 024°40'0 0.0
2017-Nov-12 05:00N 70°60' E 024°40'0 0.0
2017-Nov-12 04:30N 70°60' E 024°40'0 0.0
2017-Nov-12 04:00N 70°60' E 024°40'0 0.0
2017-Nov-12 03:30N 70°60' E 024°40'0 0.0
2017-Nov-12 03:00N 70°60' E 024°40'0 0.0
2017-Nov-12 02:30N 70°60' E 024°40'0 0.0
2017-Nov-12 02:00N 70°60' E 024°40'0 0.0
2017-Nov-12 01:30N 70°60' E 024°40'0 0.0
2017-Nov-12 01:00N 70°60' E 024°40'0 0.0
2017-Nov-12 00:29N 70°60' E 024°40'0 0.0
2017-Nov-12 00:00N 70°60' E 024°40'0 0.0
2017-Nov-11 23:30N 70°60' E 024°40'0 0.0
2017-Nov-11 23:00N 70°60' E 024°40'0 0.0
2017-Nov-11 22:30N 70°60' E 024°40'0 0.0
2017-Nov-11 22:00N 70°60' E 024°40'0 0.0
2017-Nov-11 21:30N 70°60' E 024°40'0 0.0
2017-Nov-11 21:00N 70°60' E 024°40'0 0.0
2017-Nov-11 20:30N 70°60' E 024°40'0 0.0
2017-Nov-11 20:00N 70°60' E 024°40'0 0.0
2017-Nov-11 19:30N 70°60' E 024°40'0 0.0
2017-Nov-11 19:00N 70°60' E 024°40'0 0.0
2017-Nov-11 18:30N 70°60' E 024°40'0 0.0
2017-Nov-11 18:00N 70°60' E 024°40'0 0.0
2017-Nov-11 17:30N 70°60' E 024°40'0 0.0
2017-Nov-11 17:00N 70°60' E 024°40'0 0.0
2017-Nov-11 16:30N 70°60' E 024°40'0 0.0
2017-Nov-11 16:00N 70°60' E 024°40'0 0.0
2017-Nov-11 15:30N 70°60' E 024°40'0 0.0
2017-Nov-11 15:00N 70°60' E 024°40'0 0.0
2017-Nov-11 14:30N 70°60' E 024°40'0 0.0
2017-Nov-11 14:00N 70°60' E 024°40'0 0.0
2017-Nov-11 13:30N 70°60' E 024°40'0 0.0
2017-Nov-11 13:00N 70°60' E 024°40'0 0.0
2017-Nov-11 12:30N 70°60' E 024°40'0 0.0
2017-Nov-11 12:00N 70°60' E 024°40'0 0.0
2017-Nov-11 11:30N 70°60' E 024°40'0 0.0
2017-Nov-11 11:00N 70°60' E 024°40'0 0.0
2017-Nov-11 10:30N 70°60' E 024°40'0 0.0
2017-Nov-11 10:00N 70°60' E 024°40'0 0.0
2017-Nov-11 09:30N 70°60' E 024°40'0 0.0
2017-Nov-11 09:00N 70°60' E 024°40'0 0.0
2017-Nov-11 08:30N 70°60' E 024°40'0 0.0
2017-Nov-11 07:59N 70°60' E 024°40'0 0.0
2017-Nov-11 07:31N 70°60' E 024°40'0 0.0
2017-Nov-11 07:00N 70°60' E 024°40'0 0.0
2017-Nov-11 06:29N 70°60' E 024°40'0 0.0
2017-Nov-11 06:00N 70°60' E 024°40'0 0.0
2017-Nov-11 05:30N 70°60' E 024°40'0 0.0
2017-Nov-11 05:00N 70°60' E 024°40'0 0.0
2017-Nov-11 04:30N 70°60' E 024°40'0 0.0
2017-Nov-11 04:00N 70°60' E 024°40'0 0.0
2017-Nov-11 03:30N 70°60' E 024°40'0 0.0
2017-Nov-11 03:00N 70°60' E 024°40'0 0.0
2017-Nov-11 02:30N 70°60' E 024°40'0 0.0
2017-Nov-11 02:00N 70°60' E 024°40'0 0.0
2017-Nov-11 01:30N 70°60' E 024°40'0 0.0
2017-Nov-11 01:00N 70°60' E 024°40'0 0.0
2017-Nov-11 00:30N 70°60' E 024°40'0 0.0
2017-Nov-11 00:00N 70°60' E 024°40'0 0.0
2017-Nov-10 23:30N 70°60' E 024°40'0 0.0
2017-Nov-10 23:00N 70°60' E 024°40'0 0.0
2017-Nov-10 22:30N 70°60' E 024°40'0 0.0
2017-Nov-10 22:00N 70°60' E 024°40'0 0.0
2017-Nov-10 21:30N 70°60' E 024°40'0 0.0
2017-Nov-10 21:00N 70°60' E 024°40'0 0.0
2017-Nov-10 20:30N 70°60' E 024°40'0 0.0
2017-Nov-10 20:01N 70°60' E 024°40'0 0.0
2017-Nov-10 19:30N 70°60' E 024°40'0 0.0
2017-Nov-10 19:00N 70°60' E 024°40'0 0.0
2017-Nov-10 18:30N 70°60' E 024°40'0 0.0
2017-Nov-10 18:00N 70°60' E 024°40'0 0.0
2017-Nov-10 17:30N 70°60' E 024°40'0 0.0
2017-Nov-10 16:59N 70°60' E 024°40'0 0.0
2017-Nov-10 16:30N 70°60' E 024°40'0 0.0
2017-Nov-10 16:00N 70°60' E 024°40'0 0.0
2017-Nov-10 15:30N 70°60' E 024°40'0 0.0
2017-Nov-10 15:00N 70°60' E 024°40'0 0.0
2017-Nov-10 14:30N 70°60' E 024°40'0 0.0
2017-Nov-10 14:00N 70°60' E 024°40'0 0.0
2017-Nov-10 13:30N 70°60' E 024°40'0 0.0
2017-Nov-10 13:00N 70°60' E 024°40'0 0.0
2017-Nov-10 12:31N 70°60' E 024°40'0 0.0
2017-Nov-10 12:00N 70°60' E 024°40'0 0.0
2017-Nov-10 11:30N 70°60' E 024°40'0 0.0
2017-Nov-10 11:00N 70°60' E 024°40'0 0.0
2017-Nov-10 10:30N 70°60' E 024°40'0 0.0
2017-Nov-10 10:00N 70°60' E 024°40'0 0.0
2017-Nov-10 09:30N 70°60' E 024°40'0 0.0
2017-Nov-10 09:00N 70°60' E 024°40'0 0.0
2017-Nov-10 08:30N 70°60' E 024°40'0 0.0
2017-Nov-10 08:01N 70°60' E 024°40'0 0.0
2017-Nov-10 07:30N 70°60' E 024°40'0 0.0
2017-Nov-10 07:00N 70°60' E 024°40'0 0.0
2017-Nov-10 06:30N 70°60' E 024°40'0 0.0
2017-Nov-10 06:00N 70°60' E 024°40'0 0.0
2017-Nov-10 05:30N 70°60' E 024°40'0 0.0
2017-Nov-10 05:00N 70°60' E 024°40'0 0.0
2017-Nov-10 04:30N 70°60' E 024°40'0 0.0
2017-Nov-10 04:00N 70°60' E 024°40'0 0.0
2017-Nov-10 03:30N 70°60' E 024°40'0 0.0
2017-Nov-10 03:00N 70°60' E 024°40'0 0.0
2017-Nov-10 02:30N 70°60' E 024°40'0 0.0
2017-Nov-10 02:00N 70°60' E 024°40'0 0.0
2017-Nov-10 01:30N 70°60' E 024°40'0 0.0
2017-Nov-10 01:00N 70°60' E 024°40'0 0.0
2017-Nov-10 00:30N 70°60' E 024°40'0 0.0
2017-Nov-10 00:00N 70°60' E 024°40'0 0.0
2017-Nov-09 23:30N 70°60' E 024°40'0 0.0
2017-Nov-09 23:00N 70°60' E 024°40'0 0.0
2017-Nov-09 22:30N 70°60' E 024°40'0 0.0
2017-Nov-09 22:01N 70°60' E 024°40'0 0.0
2017-Nov-09 21:30N 70°60' E 024°40'0 0.0
2017-Nov-09 21:00N 70°60' E 024°40'0 0.0
2017-Nov-09 20:30N 70°60' E 024°40'0 0.0
2017-Nov-09 20:00N 70°60' E 024°40'0 0.0
2017-Nov-09 19:30N 70°60' E 024°40'0 0.0
2017-Nov-09 19:00N 70°60' E 024°40'0 0.0
2017-Nov-09 18:30N 70°60' E 024°40'0 0.0
2017-Nov-09 18:00N 70°60' E 024°40'0 0.0
2017-Nov-09 17:30N 70°60' E 024°40'0 0.0
2017-Nov-09 17:01N 70°60' E 024°40'0 0.0
2017-Nov-09 16:31N 70°60' E 024°40'0 0.0
2017-Nov-09 16:00N 70°60' E 024°40'0 0.0
2017-Nov-09 15:30N 70°60' E 024°40'0 0.0
2017-Nov-09 15:00N 70°60' E 024°40'0 0.0
2017-Nov-09 14:30N 70°60' E 024°40'0 0.0
2017-Nov-09 14:00N 70°60' E 024°40'0 0.0
2017-Nov-09 13:30N 70°60' E 024°40'0 0.0
2017-Nov-09 13:00N 70°60' E 024°40'0 0.0
2017-Nov-09 12:30N 70°60' E 024°40'0 0.0
2017-Nov-09 12:00N 70°60' E 024°40'0 0.0
2017-Nov-09 11:31N 70°60' E 024°40'0 0.0
2017-Nov-09 11:00N 70°60' E 024°40'0 0.0
2017-Nov-09 10:30N 70°60' E 024°40'0 0.0
2017-Nov-09 10:01N 70°60' E 024°40'0 0.0
2017-Nov-09 09:30N 70°60' E 024°40'0 0.0
2017-Nov-09 09:00N 70°60' E 024°40'0 0.0
2017-Nov-09 08:29N 70°60' E 024°40'0 0.0
2017-Nov-09 08:00N 70°60' E 024°40'0 0.0
2017-Nov-09 07:30N 70°60' E 024°40'0 0.0
2017-Nov-09 07:00N 70°60' E 024°40'0 0.0
2017-Nov-09 06:31N 70°60' E 024°40'0 0.0
2017-Nov-09 06:00N 70°60' E 024°40'0 0.0
2017-Nov-09 05:30N 70°60' E 024°40'0 0.0
2017-Nov-09 05:00N 70°60' E 024°40'0 0.0
2017-Nov-09 04:30N 70°60' E 024°40'0 0.0
2017-Nov-09 04:00N 70°60' E 024°40'0 0.0
2017-Nov-09 03:30N 70°60' E 024°40'0 0.0
2017-Nov-09 03:00N 70°60' E 024°40'0 0.0
2017-Nov-09 02:30N 70°60' E 024°40'0 0.0
2017-Nov-09 02:00N 70°60' E 024°40'0 0.0
2017-Nov-09 01:30N 70°60' E 024°40'0 0.0
2017-Nov-09 01:00N 70°60' E 024°40'0 0.0
2017-Nov-09 00:31N 70°60' E 024°40'0 0.0
2017-Nov-09 00:00N 70°60' E 024°40'0 0.0
2017-Nov-08 23:30N 70°60' E 024°40'0 0.0
2017-Nov-08 23:00N 70°60' E 024°40'0 0.0
2017-Nov-08 22:30N 70°60' E 024°40'0 0.0
2017-Nov-08 22:00N 70°60' E 024°40'0 0.0
2017-Nov-08 21:30N 70°60' E 024°40'0 0.0
2017-Nov-08 21:00N 70°60' E 024°40'0 0.0
2017-Nov-08 20:30N 70°60' E 024°40'0 0.0
2017-Nov-08 20:00N 70°60' E 024°40'0 0.0
2017-Nov-08 19:30N 70°60' E 024°40'0 0.0
2017-Nov-08 19:01N 70°60' E 024°40'0 0.0
2017-Nov-08 18:30N 70°60' E 024°40'0 0.0
2017-Nov-08 18:00N 70°60' E 024°40'0 0.0
2017-Nov-08 17:30N 70°60' E 024°40'0 0.0
2017-Nov-08 16:59N 70°60' E 024°40'0 0.0
2017-Nov-08 16:30N 70°60' E 024°40'0 0.0
2017-Nov-08 16:00N 70°60' E 024°40'0 0.0
2017-Nov-08 15:30N 70°60' E 024°40'0 0.0
2017-Nov-08 15:00N 70°60' E 024°40'1 1.5
2017-Nov-08 14:30N 70°60' E 024°42'0 0.0
2017-Nov-08 14:00N 70°60' E 024°42'3 6.2
2017-Nov-08 13:30N 70°59' E 024°33'1 2.5
2017-Nov-08 13:00N 70°57' E 024°33'0 0.5
2017-Nov-08 12:30N 70°58' E 024°33'0 0.3
2017-Nov-08 12:00N 70°58' E 024°33'0 0.2
2017-Nov-08 11:30N 70°58' E 024°33'1 1.7
2017-Nov-08 11:00N 70°57' E 024°35'0 0.1
2017-Nov-08 10:30N 70°58' E 024°35'1 1.1
2017-Nov-08 10:00N 70°57' E 024°33'0 0.4
2017-Nov-08 09:30N 70°58' E 024°33'0 0.2
2017-Nov-08 09:00N 70°57' E 024°33'0 0.2
2017-Nov-08 08:30N 70°57' E 024°33'0 0.6
2017-Nov-08 08:00N 70°58' E 024°34'1 2.2
2017-Nov-08 07:30N 70°59' E 024°33'3 5.1
2017-Nov-08 07:00N 70°60' E 024°40'0 0.0
2017-Nov-08 06:30N 70°60' E 024°40'0 0.0
2017-Nov-08 06:00N 70°60' E 024°40'0 0.0
2017-Nov-08 05:30N 70°60' E 024°40'0 0.0
2017-Nov-08 05:00N 70°60' E 024°40'0 0.0
2017-Nov-08 04:30N 70°60' E 024°40'0 0.0
2017-Nov-08 04:01N 70°60' E 024°40'0 0.0
2017-Nov-08 03:29N 70°60' E 024°40'0 0.0
2017-Nov-08 03:00N 70°60' E 024°40'0 0.0
2017-Nov-08 02:30N 70°60' E 024°40'0 0.0
2017-Nov-08 02:00N 70°60' E 024°40'0 0.0
2017-Nov-08 01:30N 70°60' E 024°40'0 0.0
2017-Nov-08 01:00N 70°60' E 024°40'0 0.0
2017-Nov-08 00:30N 70°60' E 024°40'0 0.0
2017-Nov-08 00:00N 70°60' E 024°40'0 0.0
2017-Nov-07 23:30N 70°60' E 024°40'0 0.0
2017-Nov-07 23:00N 70°60' E 024°40'0 0.0
2017-Nov-07 22:30N 70°60' E 024°40'0 0.0
2017-Nov-07 22:00N 70°60' E 024°40'0 0.0
2017-Nov-07 21:30N 70°60' E 024°40'0 0.0
2017-Nov-07 21:00N 70°60' E 024°40'0 0.0
2017-Nov-07 20:30N 70°60' E 024°40'0 0.0
2017-Nov-07 20:00N 70°60' E 024°40'0 0.0
2017-Nov-07 19:30N 70°60' E 024°40'0 0.0
2017-Nov-07 19:00N 70°60' E 024°40'0 0.0
2017-Nov-07 18:29N 70°60' E 024°40'0 0.0
2017-Nov-07 18:00N 70°60' E 024°40'0 0.0
2017-Nov-07 17:30N 70°60' E 024°40'0 0.0
2017-Nov-07 17:00N 70°60' E 024°40'2 3.4
2017-Nov-07 16:30N 70°59' E 024°35'2 3.2
2017-Nov-07 16:00N 70°58' E 024°34'0 0.1
2017-Nov-07 15:30N 70°58' E 024°34'0 0.1
2017-Nov-07 15:00N 70°58' E 024°34'0 0.7
2017-Nov-07 14:29N 70°58' E 024°32'0 0.5
2017-Nov-07 13:59N 70°57' E 024°33'0 0.4
2017-Nov-07 13:30N 70°58' E 024°34'0 0.2
2017-Nov-07 13:00N 70°58' E 024°34'0 0.3
2017-Nov-07 12:30N 70°57' E 024°34'0 0.3
2017-Nov-07 12:00N 70°57' E 024°34'0 0.1
2017-Nov-07 11:30N 70°57' E 024°34'0 0.4
2017-Nov-07 11:00N 70°57' E 024°35'0 0.9
2017-Nov-07 10:30N 70°58' E 024°33'3 5.5
2017-Nov-07 10:00N 70°60' E 024°39'0 0.6
2017-Nov-07 09:30N 70°60' E 024°40'0 0.8
2017-Nov-07 09:00N 70°60' E 024°41'0 0.8
2017-Nov-07 08:30N 70°60' E 024°40'0 0.0
2017-Nov-07 08:00N 70°60' E 024°40'0 0.0
2017-Nov-07 07:31N 70°60' E 024°40'0 0.0
2017-Nov-07 07:00N 70°60' E 024°40'0 0.0
2017-Nov-07 06:30N 70°60' E 024°40'0 0.0
2017-Nov-07 06:00N 70°60' E 024°40'0 0.0
2017-Nov-07 05:30N 70°60' E 024°40'0 0.0
2017-Nov-07 04:59N 70°60' E 024°40'0 0.0
2017-Nov-07 04:30N 70°60' E 024°40'0 0.0
2017-Nov-07 04:00N 70°60' E 024°40'0 0.0
2017-Nov-07 03:31N 70°60' E 024°40'0 0.0
2017-Nov-07 03:00N 70°60' E 024°40'0 0.0
2017-Nov-07 02:30N 70°60' E 024°40'0 0.0
2017-Nov-07 02:00N 70°60' E 024°40'0 0.0
2017-Nov-07 01:30N 70°60' E 024°40'0 0.0
2017-Nov-07 01:00N 70°60' E 024°40'0 0.0
2017-Nov-07 00:31N 70°60' E 024°40'0 0.0
2017-Nov-07 00:00N 70°60' E 024°40'0 0.0
2017-Nov-06 23:31N 70°60' E 024°40'0 0.0
2017-Nov-06 23:01N 70°60' E 024°40'0 0.0
2017-Nov-06 22:30N 70°60' E 024°40'0 0.0
2017-Nov-06 22:00N 70°60' E 024°40'0 0.0
2017-Nov-06 21:30N 70°60' E 024°40'0 0.0
2017-Nov-06 21:00N 70°60' E 024°40'0 0.0
2017-Nov-06 20:30N 70°60' E 024°40'  
Track history (hours):
 
Tides and Currents Weather Stations Pressure Air Temp Water Temp Dewpoint Dewpoint Depression Visibility Wind Speed Wind Dir Waves Ship Positions

Steinryggen

Last reported at 2017-Nov-16 09:06 UTC. Time now 2017-Dec-14 02:34 UTC.
Position N 70°11' E 025°15'.
Warning: this ship's position is 27 days out of date.

Length 15 m.

MMSI: 257154440.

Date/timePositionNaut miles runAvg speedWind from/ knotsBaromVisibWave heightAir tempDewpointWater temp
2017-Nov-16 09:06N 70°11' E 025°15'1 7.6
2017-Nov-16 09:00N 70°11' E 025°14'4 7.6
2017-Nov-16 08:30N 70°07' E 025°10'2 3.7
2017-Nov-16 07:51N 70°06' E 025°05'0 0.0
2017-Nov-16 07:03N 70°06' E 025°05'0 6.7
2017-Nov-16 07:00N 70°06' E 025°06'4 7.2
2017-Nov-16 06:30N 70°09' E 025°12'4 7.2
2017-Nov-16 06:00N 70°12' E 025°16'4 7.0
2017-Nov-16 05:30N 70°15' E 025°20'3 5.1
2017-Nov-16 05:00N 70°18' E 025°20'0 0.4
2017-Nov-16 04:30N 70°18' E 025°19'0 0.0
2017-Nov-16 04:00N 70°18' E 025°19'0 0.0
2017-Nov-16 03:31N 70°18' E 025°19'0 0.0
2017-Nov-16 03:00N 70°18' E 025°19'0 0.0
2017-Nov-16 02:30N 70°18' E 025°19'0 0.0
2017-Nov-16 02:00N 70°18' E 025°19'0 0.0
2017-Nov-16 01:30N 70°18' E 025°19'0 0.0
2017-Nov-16 01:00N 70°18' E 025°19'0 0.0
2017-Nov-16 00:30N 70°18' E 025°19'0 0.0
2017-Nov-16 00:00N 70°18' E 025°19'0 0.0
2017-Nov-15 23:30N 70°18' E 025°19'0 0.0
2017-Nov-15 22:59N 70°18' E 025°19'0 0.0
2017-Nov-15 22:30N 70°18' E 025°19'0 0.0
2017-Nov-15 22:00N 70°18' E 025°19'0 0.0
2017-Nov-15 21:30N 70°18' E 025°19'0 0.0
2017-Nov-15 21:00N 70°18' E 025°19'0 0.0
2017-Nov-15 20:30N 70°18' E 025°19'0 0.0
2017-Nov-15 20:01N 70°18' E 025°19'0 0.0
2017-Nov-15 19:30N 70°18' E 025°19'0 0.0
2017-Nov-15 19:00N 70°18' E 025°19'0 0.0
2017-Nov-15 18:29N 70°18' E 025°19'0 0.0
2017-Nov-15 18:00N 70°18' E 025°19'0 0.0
2017-Nov-15 17:30N 70°18' E 025°19'0 0.0
2017-Nov-15 17:00N 70°18' E 025°19'0 0.0
2017-Nov-15 16:30N 70°18' E 025°19'1 2.7
2017-Nov-15 16:00N 70°18' E 025°22'1 2.1
2017-Nov-15 15:30N 70°19' E 025°24'1 2.1
2017-Nov-15 15:00N 70°19' E 025°21'0 0.2
2017-Nov-15 14:30N 70°19' E 025°22'0 0.1
2017-Nov-15 14:00N 70°19' E 025°22'1 2.4
2017-Nov-15 13:30N 70°19' E 025°25'0 0.6
2017-Nov-15 13:00N 70°19' E 025°24'0 0.2
2017-Nov-15 12:30N 70°19' E 025°24'2 3.7
2017-Nov-15 12:00N 70°17' E 025°21'3 6.8
2017-Nov-15 11:30N 70°14' E 025°18'4 7.1
2017-Nov-15 11:00N 70°10' E 025°13'4 7.3
2017-Nov-15 10:30N 70°07' E 025°09'2 4.6
2017-Nov-15 10:00N 70°06' E 025°05'0 0.0
2017-Nov-15 08:59N 70°06' E 025°05'3 5.9
2017-Nov-15 08:30N 70°07' E 025°12'4 7.3
2017-Nov-15 08:00N 70°11' E 025°15'4 7.3
2017-Nov-15 07:30N 70°14' E 025°19'3 6.8
2017-Nov-15 07:00N 70°17' E 025°21'1 1.4
2017-Nov-15 06:30N 70°18' E 025°19'0 0.0
2017-Nov-15 06:00N 70°18' E 025°19'0 0.0
2017-Nov-15 05:30N 70°18' E 025°19'0 0.0
2017-Nov-15 05:00N 70°18' E 025°19'0 0.0
2017-Nov-15 04:30N 70°18' E 025°19'0 0.0
2017-Nov-15 04:00N 70°18' E 025°19'0 0.0
2017-Nov-15 03:30N 70°18' E 025°19'0 0.0
2017-Nov-15 03:00N 70°18' E 025°19'0 0.0
2017-Nov-15 02:30N 70°18' E 025°19'0 0.0
2017-Nov-15 02:00N 70°18' E 025°19'0 0.0
2017-Nov-15 01:30N 70°18' E 025°19'0 0.0
2017-Nov-15 01:00N 70°18' E 025°19'0 0.0
2017-Nov-15 00:30N 70°18' E 025°19'0 0.0
2017-Nov-15 00:00N 70°18' E 025°19'0 0.0
2017-Nov-14 23:30N 70°18' E 025°19'0 0.0
2017-Nov-14 23:00N 70°18' E 025°19'0 0.0
2017-Nov-14 22:31N 70°18' E 025°19'0 0.0
2017-Nov-14 22:00N 70°18' E 025°19'0 0.0
2017-Nov-14 21:30N 70°18' E 025°19'0 0.0
2017-Nov-14 21:00N 70°18' E 025°19'0 0.0
2017-Nov-14 20:30N 70°18' E 025°19'0 0.0
2017-Nov-14 20:00N 70°18' E 025°19'0 0.0
2017-Nov-14 19:30N 70°18' E 025°19'1 2.6
2017-Nov-14 19:00N 70°18' E 025°22'1 2.2
2017-Nov-14 18:31N 70°19' E 025°25'1 1.5
2017-Nov-14 18:00N 70°19' E 025°22'0 0.5
2017-Nov-14 17:30N 70°19' E 025°22'1 2.7
2017-Nov-14 16:59N 70°20' E 025°22'3 6.6
2017-Nov-14 16:30N 70°23' E 025°24'4 6.9
2017-Nov-14 16:00N 70°27' E 025°27'4 7.0
2017-Nov-14 15:30N 70°30' E 025°31'4 7.0
2017-Nov-14 15:00N 70°34' E 025°34'4 7.3
2017-Nov-14 14:30N 70°37' E 025°37'4 7.3
2017-Nov-14 14:00N 70°40' E 025°41'4 7.4
2017-Nov-14 13:30N 70°44' E 025°46'4 7.7
2017-Nov-14 13:00N 70°47' E 025°50'4 7.6
2017-Nov-14 12:30N 70°51' E 025°54'4 7.5
2017-Nov-14 12:01N 70°54' E 025°56'4 7.6
2017-Nov-14 11:30N 70°58' E 025°57'0 0.9
2017-Nov-14 10:59N 70°59' E 025°58'0 0.5
2017-Nov-14 10:30N 70°59' E 025°58'0 0.0
2017-Nov-14 10:00N 70°59' E 025°58'0 0.0
2017-Nov-14 09:30N 70°59' E 025°58'0 0.0
2017-Nov-14 09:00N 70°59' E 025°58'0 0.0
2017-Nov-14 08:30N 70°59' E 025°58'0 0.0
2017-Nov-14 08:00N 70°59' E 025°58'0 0.0
2017-Nov-14 07:30N 70°59' E 025°58'0 0.0
2017-Nov-14 07:00N 70°59' E 025°58'0 0.0
2017-Nov-14 06:30N 70°59' E 025°58'0 0.0
2017-Nov-14 06:00N 70°59' E 025°58'0 0.0
2017-Nov-14 05:30N 70°59' E 025°58'0 0.0
2017-Nov-14 05:00N 70°59' E 025°58'0 0.0
2017-Nov-14 04:30N 70°59' E 025°58'0 0.0
2017-Nov-14 04:00N 70°59' E 025°58'0 0.0
2017-Nov-14 03:30N 70°59' E 025°58'0 0.0
2017-Nov-14 03:00N 70°59' E 025°58'0 0.0
2017-Nov-14 02:30N 70°59' E 025°58'0 0.0
2017-Nov-14 02:00N 70°59' E 025°58'0 0.0
2017-Nov-14 01:30N 70°59' E 025°58'3 5.7
2017-Nov-14 01:00N 70°56' E 025°56'4 7.5
2017-Nov-14 00:30N 70°52' E 025°55'4 7.3
2017-Nov-14 00:00N 70°49' E 025°52'4 7.2
2017-Nov-13 23:30N 70°46' E 025°47'4 7.2
2017-Nov-13 23:00N 70°42' E 025°43'4 7.4
2017-Nov-13 22:30N 70°39' E 025°39'4 7.4
2017-Nov-13 22:00N 70°35' E 025°34'19 0.9
2017-Nov-13 02:00N 70°18' E 025°19'0 0.0
2017-Nov-13 01:30N 70°18' E 025°19'0 0.0
2017-Nov-13 01:00N 70°18' E 025°19'0 0.0
2017-Nov-13 00:30N 70°18' E 025°19'0 0.0
2017-Nov-13 00:00N 70°18' E 025°19'0 0.0
2017-Nov-12 23:30N 70°18' E 025°19'0 0.0
2017-Nov-12 23:00N 70°18' E 025°19'0 0.0
2017-Nov-12 22:29N 70°18' E 025°19'0 0.0
2017-Nov-12 22:00N 70°18' E 025°19'2 3.3
2017-Nov-12 21:30N 70°19' E 025°21'2 3.5
2017-Nov-12 21:00N 70°19' E 025°26'2 4.4
2017-Nov-12 20:30N 70°20' E 025°21'2 4.3
2017-Nov-12 20:01N 70°22' E 025°24'4 7.3
2017-Nov-12 19:30N 70°25' E 025°27'4 7.5
2017-Nov-12 19:00N 70°29' E 025°30'4 7.5
2017-Nov-12 18:30N 70°32' E 025°32'4 7.5
2017-Nov-12 18:00N 70°36' E 025°35'4 7.5
2017-Nov-12 17:29N 70°40' E 025°40'4 7.6
2017-Nov-12 17:00N 70°43' E 025°44'4 7.5
2017-Nov-12 16:30N 70°47' E 025°49'4 7.6
2017-Nov-12 16:00N 70°50' E 025°54'4 7.2
2017-Nov-12 15:31N 70°53' E 025°55'3 6.9
2017-Nov-12 15:00N 70°55' E 025°45'4 7.2
2017-Nov-12 14:30N 70°56' E 025°34'3 5.9
2017-Nov-12 14:00N 70°57' E 025°27'3 6.5
2017-Nov-12 13:30N 70°59' E 025°19'4 7.3
2017-Nov-12 13:00N 70°59' E 025°08'4 7.1
2017-Nov-12 12:30N 70°59' E 024°57'4 7.1
2017-Nov-12 12:00N 70°60' E 024°46'1 2.6
2017-Nov-12 11:30N 70°60' E 024°42'1 1.5
2017-Nov-12 11:00N 70°60' E 024°40'0 0.0
2017-Nov-12 10:30N 70°60' E 024°40'0 0.0
2017-Nov-12 10:00N 70°60' E 024°40'0 0.0
2017-Nov-12 09:30N 70°60' E 024°40'0 0.0
2017-Nov-12 09:00N 70°60' E 024°40'0 0.0
2017-Nov-12 08:30N 70°60' E 024°40'0 0.1
2017-Nov-12 08:00N 70°60' E 024°40'0 0.0
2017-Nov-12 07:30N 70°60' E 024°40'0 0.0
2017-Nov-12 07:00N 70°60' E 024°40'0 0.0
2017-Nov-12 06:30N 70°60' E 024°40'0 0.0
2017-Nov-12 06:00N 70°60' E 024°40'0 0.0
2017-Nov-12 05:30N 70°60' E 024°40'0 0.0
2017-Nov-12 05:00N 70°60' E 024°40'0 0.0
2017-Nov-12 04:30N 70°60' E 024°40'0 0.0
2017-Nov-12 04:00N 70°60' E 024°40'0 0.0
2017-Nov-12 03:30N 70°60' E 024°40'0 0.0
2017-Nov-12 03:00N 70°60' E 024°40'0 0.0
2017-Nov-12 02:30N 70°60' E 024°40'0 0.0
2017-Nov-12 02:00N 70°60' E 024°40'0 0.0
2017-Nov-12 01:30N 70°60' E 024°40'0 0.0
2017-Nov-12 01:00N 70°60' E 024°40'0 0.0
2017-Nov-12 00:29N 70°60' E 024°40'0 0.0
2017-Nov-12 00:00N 70°60' E 024°40'0 0.0
2017-Nov-11 23:30N 70°60' E 024°40'0 0.0
2017-Nov-11 23:00N 70°60' E 024°40'0 0.0
2017-Nov-11 22:30N 70°60' E 024°40'0 0.0
2017-Nov-11 22:00N 70°60' E 024°40'0 0.0
2017-Nov-11 21:30N 70°60' E 024°40'0 0.0
2017-Nov-11 21:00N 70°60' E 024°40'0 0.0
2017-Nov-11 20:30N 70°60' E 024°40'0 0.0
2017-Nov-11 20:00N 70°60' E 024°40'0 0.0
2017-Nov-11 19:30N 70°60' E 024°40'0 0.0
2017-Nov-11 19:00N 70°60' E 024°40'0 0.0
2017-Nov-11 18:30N 70°60' E 024°40'0 0.0
2017-Nov-11 18:00N 70°60' E 024°40'0 0.0
2017-Nov-11 17:30N 70°60' E 024°40'0 0.0
2017-Nov-11 17:00N 70°60' E 024°40'0 0.0
2017-Nov-11 16:30N 70°60' E 024°40'0 0.0
2017-Nov-11 16:00N 70°60' E 024°40'0 0.0
2017-Nov-11 15:30N 70°60' E 024°40'0 0.0
2017-Nov-11 15:00N 70°60' E 024°40'0 0.0
2017-Nov-11 14:30N 70°60' E 024°40'0 0.0
2017-Nov-11 14:00N 70°60' E 024°40'0 0.0
2017-Nov-11 13:30N 70°60' E 024°40'0 0.0
2017-Nov-11 13:00N 70°60' E 024°40'0 0.0
2017-Nov-11 12:30N 70°60' E 024°40'0 0.0
2017-Nov-11 12:00N 70°60' E 024°40'0 0.0
2017-Nov-11 11:30N 70°60' E 024°40'0 0.0
2017-Nov-11 11:00N 70°60' E 024°40'0 0.0
2017-Nov-11 10:30N 70°60' E 024°40'0 0.0
2017-Nov-11 10:00N 70°60' E 024°40'0 0.0
2017-Nov-11 09:30N 70°60' E 024°40'0 0.0
2017-Nov-11 09:00N 70°60' E 024°40'0 0.0
2017-Nov-11 08:30N 70°60' E 024°40'0 0.0
2017-Nov-11 07:59N 70°60' E 024°40'0 0.0
2017-Nov-11 07:31N 70°60' E 024°40'0 0.0
2017-Nov-11 07:00N 70°60' E 024°40'0 0.0
2017-Nov-11 06:29N 70°60' E 024°40'0 0.0
2017-Nov-11 06:00N 70°60' E 024°40'0 0.0
2017-Nov-11 05:30N 70°60' E 024°40'0 0.0
2017-Nov-11 05:00N 70°60' E 024°40'0 0.0
2017-Nov-11 04:30N 70°60' E 024°40'0 0.0
2017-Nov-11 04:00N 70°60' E 024°40'0 0.0
2017-Nov-11 03:30N 70°60' E 024°40'0 0.0
2017-Nov-11 03:00N 70°60' E 024°40'0 0.0
2017-Nov-11 02:30N 70°60' E 024°40'0 0.0
2017-Nov-11 02:00N 70°60' E 024°40'0 0.0
2017-Nov-11 01:30N 70°60' E 024°40'0 0.0
2017-Nov-11 01:00N 70°60' E 024°40'0 0.0
2017-Nov-11 00:30N 70°60' E 024°40'0 0.0
2017-Nov-11 00:00N 70°60' E 024°40'0 0.0
2017-Nov-10 23:30N 70°60' E 024°40'0 0.0
2017-Nov-10 23:00N 70°60' E 024°40'0 0.0
2017-Nov-10 22:30N 70°60' E 024°40'0 0.0
2017-Nov-10 22:00N 70°60' E 024°40'0 0.0
2017-Nov-10 21:30N 70°60' E 024°40'0 0.0
2017-Nov-10 21:00N 70°60' E 024°40'0 0.0
2017-Nov-10 20:30N 70°60' E 024°40'0 0.0
2017-Nov-10 20:01N 70°60' E 024°40'0 0.0
2017-Nov-10 19:30N 70°60' E 024°40'0 0.0
2017-Nov-10 19:00N 70°60' E 024°40'0 0.0
2017-Nov-10 18:30N 70°60' E 024°40'0 0.0
2017-Nov-10 18:00N 70°60' E 024°40'0 0.0
2017-Nov-10 17:30N 70°60' E 024°40'0 0.0
2017-Nov-10 16:59N 70°60' E 024°40'0 0.0
2017-Nov-10 16:30N 70°60' E 024°40'0 0.0
2017-Nov-10 16:00N 70°60' E 024°40'0 0.0
2017-Nov-10 15:30N 70°60' E 024°40'0 0.0
2017-Nov-10 15:00N 70°60' E 024°40'0 0.0
2017-Nov-10 14:30N 70°60' E 024°40'0 0.0
2017-Nov-10 14:00N 70°60' E 024°40'0 0.0
2017-Nov-10 13:30N 70°60' E 024°40'0 0.0
2017-Nov-10 13:00N 70°60' E 024°40'0 0.0
2017-Nov-10 12:31N 70°60' E 024°40'0 0.0
2017-Nov-10 12:00N 70°60' E 024°40'0 0.0
2017-Nov-10 11:30N 70°60' E 024°40'0 0.0
2017-Nov-10 11:00N 70°60' E 024°40'0 0.0
2017-Nov-10 10:30N 70°60' E 024°40'0 0.0
2017-Nov-10 10:00N 70°60' E 024°40'0 0.0
2017-Nov-10 09:30N 70°60' E 024°40'0 0.0
2017-Nov-10 09:00N 70°60' E 024°40'0 0.0
2017-Nov-10 08:30N 70°60' E 024°40'0 0.0
2017-Nov-10 08:01N 70°60' E 024°40'0 0.0
2017-Nov-10 07:30N 70°60' E 024°40'0 0.0
2017-Nov-10 07:00N 70°60' E 024°40'0 0.0
2017-Nov-10 06:30N 70°60' E 024°40'0 0.0
2017-Nov-10 06:00N 70°60' E 024°40'0 0.0
2017-Nov-10 05:30N 70°60' E 024°40'0 0.0
2017-Nov-10 05:00N 70°60' E 024°40'0 0.0
2017-Nov-10 04:30N 70°60' E 024°40'0 0.0
2017-Nov-10 04:00N 70°60' E 024°40'0 0.0
2017-Nov-10 03:30N 70°60' E 024°40'0 0.0
2017-Nov-10 03:00N 70°60' E 024°40'0 0.0
2017-Nov-10 02:30N 70°60' E 024°40'0 0.0
2017-Nov-10 02:00N 70°60' E 024°40'0 0.0
2017-Nov-10 01:30N 70°60' E 024°40'0 0.0
2017-Nov-10 01:00N 70°60' E 024°40'0 0.0
2017-Nov-10 00:30N 70°60' E 024°40'0 0.0
2017-Nov-10 00:00N 70°60' E 024°40'0 0.0
2017-Nov-09 23:30N 70°60' E 024°40'0 0.0
2017-Nov-09 23:00N 70°60' E 024°40'0 0.0
2017-Nov-09 22:30N 70°60' E 024°40'0 0.0
2017-Nov-09 22:01N 70°60' E 024°40'0 0.0
2017-Nov-09 21:30N 70°60' E 024°40'0 0.0
2017-Nov-09 21:00N 70°60' E 024°40'0 0.0
2017-Nov-09 20:30N 70°60' E 024°40'0 0.0
2017-Nov-09 20:00N 70°60' E 024°40'0 0.0
2017-Nov-09 19:30N 70°60' E 024°40'0 0.0
2017-Nov-09 19:00N 70°60' E 024°40'0 0.0
2017-Nov-09 18:30N 70°60' E 024°40'0 0.0
2017-Nov-09 18:00N 70°60' E 024°40'0 0.0
2017-Nov-09 17:30N 70°60' E 024°40'0 0.0
2017-Nov-09 17:01N 70°60' E 024°40'0 0.0
2017-Nov-09 16:31N 70°60' E 024°40'0 0.0
2017-Nov-09 16:00N 70°60' E 024°40'0 0.0
2017-Nov-09 15:30N 70°60' E 024°40'0 0.0
2017-Nov-09 15:00N 70°60' E 024°40'0 0.0
2017-Nov-09 14:30N 70°60' E 024°40'0 0.0
2017-Nov-09 14:00N 70°60' E 024°40'0 0.0
2017-Nov-09 13:30N 70°60' E 024°40'0 0.0
2017-Nov-09 13:00N 70°60' E 024°40'0 0.0
2017-Nov-09 12:30N 70°60' E 024°40'0 0.0
2017-Nov-09 12:00N 70°60' E 024°40'0 0.0
2017-Nov-09 11:31N 70°60' E 024°40'0 0.0
2017-Nov-09 11:00N 70°60' E 024°40'0 0.0
2017-Nov-09 10:30N 70°60' E 024°40'0 0.0
2017-Nov-09 10:01N 70°60' E 024°40'0 0.0
2017-Nov-09 09:30N 70°60' E 024°40'0 0.0
2017-Nov-09 09:00N 70°60' E 024°40'0 0.0
2017-Nov-09 08:29N 70°60' E 024°40'0 0.0
2017-Nov-09 08:00N 70°60' E 024°40'0 0.0
2017-Nov-09 07:30N 70°60' E 024°40'0 0.0
2017-Nov-09 07:00N 70°60' E 024°40'0 0.0
2017-Nov-09 06:31N 70°60' E 024°40'0 0.0
2017-Nov-09 06:00N 70°60' E 024°40'0 0.0
2017-Nov-09 05:30N 70°60' E 024°40'0 0.0
2017-Nov-09 05:00N 70°60' E 024°40'0 0.0
2017-Nov-09 04:30N 70°60' E 024°40'0 0.0
2017-Nov-09 04:00N 70°60' E 024°40'0 0.0
2017-Nov-09 03:30N 70°60' E 024°40'0 0.0
2017-Nov-09 03:00N 70°60' E 024°40'0 0.0
2017-Nov-09 02:30N 70°60' E 024°40'0 0.0
2017-Nov-09 02:00N 70°60' E 024°40'0 0.0
2017-Nov-09 01:30N 70°60' E 024°40'0 0.0
2017-Nov-09 01:00N 70°60' E 024°40'0 0.0
2017-Nov-09 00:31N 70°60' E 024°40'0 0.0
2017-Nov-09 00:00N 70°60' E 024°40'0 0.0
2017-Nov-08 23:30N 70°60' E 024°40'0 0.0
2017-Nov-08 23:00N 70°60' E 024°40'0 0.0
2017-Nov-08 22:30N 70°60' E 024°40'0 0.0
2017-Nov-08 22:00N 70°60' E 024°40'0 0.0
2017-Nov-08 21:30N 70°60' E 024°40'0 0.0
2017-Nov-08 21:00N 70°60' E 024°40'0 0.0
2017-Nov-08 20:30N 70°60' E 024°40'0 0.0
2017-Nov-08 20:00N 70°60' E 024°40'0 0.0
2017-Nov-08 19:30N 70°60' E 024°40'0 0.0
2017-Nov-08 19:01N 70°60' E 024°40'0 0.0
2017-Nov-08 18:30N 70°60' E 024°40'0 0.0
2017-Nov-08 18:00N 70°60' E 024°40'0 0.0
2017-Nov-08 17:30N 70°60' E 024°40'0 0.0
2017-Nov-08 16:59N 70°60' E 024°40'0 0.0
2017-Nov-08 16:30N 70°60' E 024°40'0 0.0
2017-Nov-08 16:00N 70°60' E 024°40'0 0.0
2017-Nov-08 15:30N 70°60' E 024°40'0 0.0
2017-Nov-08 15:00N 70°60' E 024°40'1 1.5
2017-Nov-08 14:30N 70°60' E 024°42'0 0.0
2017-Nov-08 14:00N 70°60' E 024°42'3 6.2
2017-Nov-08 13:30N 70°59' E 024°33'1 2.5
2017-Nov-08 13:00N 70°57' E 024°33'0 0.5
2017-Nov-08 12:30N 70°58' E 024°33'0 0.3
2017-Nov-08 12:00N 70°58' E 024°33'0 0.2
2017-Nov-08 11:30N 70°58' E 024°33'1 1.7
2017-Nov-08 11:00N 70°57' E 024°35'0 0.1
2017-Nov-08 10:30N 70°58' E 024°35'1 1.1
2017-Nov-08 10:00N 70°57' E 024°33'0 0.4
2017-Nov-08 09:30N 70°58' E 024°33'0 0.2
2017-Nov-08 09:00N 70°57' E 024°33'0 0.2
2017-Nov-08 08:30N 70°57' E 024°33'0 0.6
2017-Nov-08 08:00N 70°58' E 024°34'1 2.2
2017-Nov-08 07:30N 70°59' E 024°33'3 5.1
2017-Nov-08 07:00N 70°60' E 024°40'0 0.0
2017-Nov-08 06:30N 70°60' E 024°40'0 0.0
2017-Nov-08 06:00N 70°60' E 024°40'0 0.0
2017-Nov-08 05:30N 70°60' E 024°40'0 0.0
2017-Nov-08 05:00N 70°60' E 024°40'0 0.0
2017-Nov-08 04:30N 70°60' E 024°40'0 0.0
2017-Nov-08 04:01N 70°60' E 024°40'0 0.0
2017-Nov-08 03:29N 70°60' E 024°40'0 0.0
2017-Nov-08 03:00N 70°60' E 024°40'0 0.0
2017-Nov-08 02:30N 70°60' E 024°40'0 0.0
2017-Nov-08 02:00N 70°60' E 024°40'0 0.0
2017-Nov-08 01:30N 70°60' E 024°40'0 0.0
2017-Nov-08 01:00N 70°60' E 024°40'0 0.0
2017-Nov-08 00:30N 70°60' E 024°40'0 0.0
2017-Nov-08 00:00N 70°60' E 024°40'0 0.0
2017-Nov-07 23:30N 70°60' E 024°40'0 0.0
2017-Nov-07 23:00N 70°60' E 024°40'0 0.0
2017-Nov-07 22:30N 70°60' E 024°40'0 0.0
2017-Nov-07 22:00N 70°60' E 024°40'0 0.0
2017-Nov-07 21:30N 70°60' E 024°40'0 0.0
2017-Nov-07 21:00N 70°60' E 024°40'0 0.0
2017-Nov-07 20:30N 70°60' E 024°40'0 0.0
2017-Nov-07 20:00N 70°60' E 024°40'0 0.0
2017-Nov-07 19:30N 70°60' E 024°40'0 0.0
2017-Nov-07 19:00N 70°60' E 024°40'0 0.0
2017-Nov-07 18:29N 70°60' E 024°40'0 0.0
2017-Nov-07 18:00N 70°60' E 024°40'0 0.0
2017-Nov-07 17:30N 70°60' E 024°40'0 0.0
2017-Nov-07 17:00N 70°60' E 024°40'2 3.4
2017-Nov-07 16:30N 70°59' E 024°35'2 3.2
2017-Nov-07 16:00N 70°58' E 024°34'0 0.1
2017-Nov-07 15:30N 70°58' E 024°34'0 0.1
2017-Nov-07 15:00N 70°58' E 024°34'0 0.7
2017-Nov-07 14:29N 70°58' E 024°32'0 0.5
2017-Nov-07 13:59N 70°57' E 024°33'0 0.4
2017-Nov-07 13:30N 70°58' E 024°34'0 0.2
2017-Nov-07 13:00N 70°58' E 024°34'0 0.3
2017-Nov-07 12:30N 70°57' E 024°34'0 0.3
2017-Nov-07 12:00N 70°57' E 024°34'0 0.1
2017-Nov-07 11:30N 70°57' E 024°34'0 0.4
2017-Nov-07 11:00N 70°57' E 024°35'0 0.9
2017-Nov-07 10:30N 70°58' E 024°33'3 5.5
2017-Nov-07 10:00N 70°60' E 024°39'0 0.6
2017-Nov-07 09:30N 70°60' E 024°40'0 0.8
2017-Nov-07 09:00N 70°60' E 024°41'0 0.8
2017-Nov-07 08:30N 70°60' E 024°40'0 0.0
2017-Nov-07 08:00N 70°60' E 024°40'0 0.0
2017-Nov-07 07:31N 70°60' E 024°40'0 0.0
2017-Nov-07 07:00N 70°60' E 024°40'0 0.0
2017-Nov-07 06:30N 70°60' E 024°40'0 0.0
2017-Nov-07 06:00N 70°60' E 024°40'0 0.0
2017-Nov-07 05:30N 70°60' E 024°40'0 0.0
2017-Nov-07 04:59N 70°60' E 024°40'0 0.0
2017-Nov-07 04:30N 70°60' E 024°40'0 0.0
2017-Nov-07 04:00N 70°60' E 024°40'0 0.0
2017-Nov-07 03:31N 70°60' E 024°40'0 0.0
2017-Nov-07 03:00N 70°60' E 024°40'0 0.0
2017-Nov-07 02:30N 70°60' E 024°40'0 0.0
2017-Nov-07 02:00N 70°60' E 024°40'0 0.0
2017-Nov-07 01:30N 70°60' E 024°40'0 0.0
2017-Nov-07 01:00N 70°60' E 024°40'0 0.0
2017-Nov-07 00:31N 70°60' E 024°40'0 0.0
2017-Nov-07 00:00N 70°60' E 024°40'0 0.0
2017-Nov-06 23:31N 70°60' E 024°40'0 0.0
2017-Nov-06 23:01N 70°60' E 024°40'0 0.0
2017-Nov-06 22:30N 70°60' E 024°40'0 0.0
2017-Nov-06 22:00N 70°60' E 024°40'0 0.0
2017-Nov-06 21:30N 70°60' E 024°40'0 0.0
2017-Nov-06 21:00N 70°60' E 024°40'0 0.0
2017-Nov-06 20:30N 70°60' E 024°40'  

Dump ship's entire track history